createdAt,value
2018-03-22T00:01:36.204Z,79.70
2018-03-22T00:04:02.785Z,79.60
2018-03-22T00:06:29.332Z,80.20
2018-03-22T00:08:55.854Z,80.20
2018-03-22T00:11:23.159Z,80.50
2018-03-22T00:13:49.663Z,80.40
2018-03-22T00:16:16.264Z,80.70
2018-03-22T00:18:43.529Z,80.80
2018-03-22T00:21:10.900Z,80.80
2018-03-22T00:23:37.483Z,80.70
2018-03-22T00:26:04.002Z,80.80
2018-03-22T00:28:30.606Z,80.70
2018-03-22T00:30:57.899Z,80.80
2018-03-22T00:33:24.475Z,80.80
2018-03-22T00:35:51.094Z,80.80
2018-03-22T00:38:18.393Z,80.80
2018-03-22T00:40:45.016Z,80.80
2018-03-22T00:43:12.279Z,80.90
2018-03-22T00:45:38.817Z,80.90
2018-03-22T00:48:06.102Z,80.90
2018-03-22T00:50:32.632Z,80.90
2018-03-22T00:52:59.190Z,80.80
2018-03-22T00:55:25.746Z,80.30
2018-03-22T00:57:52.246Z,79.80
2018-03-22T01:00:18.838Z,79.90
2018-03-22T01:02:46.109Z,80.10
2018-03-22T01:05:13.386Z,79.80
2018-03-22T01:07:39.917Z,79.80
2018-03-22T01:10:06.503Z,79.90
2018-03-22T01:12:33.754Z,80.00
2018-03-22T01:15:01.072Z,79.80
2018-03-22T01:17:27.609Z,79.70
2018-03-22T01:19:54.208Z,80.00
2018-03-22T01:22:21.499Z,79.70
2018-03-22T01:24:48.062Z,79.70
2018-03-22T01:27:14.578Z,79.60
2018-03-22T01:29:41.152Z,79.50
2018-03-22T01:32:08.438Z,79.10
2018-03-22T01:34:35.041Z,79.00
2018-03-22T01:37:01.555Z,78.90
2018-03-22T01:39:28.121Z,78.90
2018-03-22T01:41:54.635Z,78.90
2018-03-22T01:44:21.205Z,78.80
2018-03-22T01:46:48.459Z,78.90
2018-03-22T01:49:15.770Z,79.20
2018-03-22T01:51:42.296Z,79.20
2018-03-22T01:54:08.866Z,79.30
2018-03-22T01:56:35.398Z,79.50
2018-03-22T01:59:01.950Z,79.60
2018-03-22T02:01:28.485Z,79.50
2018-03-22T02:03:55.027Z,79.20
2018-03-22T02:06:21.558Z,79.00
2018-03-22T02:08:48.058Z,78.70
2018-03-22T02:11:14.605Z,79.40
2018-03-22T02:13:41.165Z,79.70
2018-03-22T02:16:07.822Z,80.10
2018-03-22T02:18:35.078Z,80.40
2018-03-22T02:21:01.732Z,80.40
2018-03-22T02:23:28.278Z,79.60
2018-03-22T02:25:54.881Z,79.70
2018-03-22T02:28:22.195Z,79.80
2018-03-22T02:30:48.788Z,79.80
2018-03-22T02:33:15.349Z,80.00
2018-03-22T02:35:41.947Z,80.30
2018-03-22T02:38:08.524Z,80.30
2018-03-22T02:40:35.093Z,80.30
2018-03-22T02:43:01.645Z,80.30
2018-03-22T02:45:28.978Z,80.90
2018-03-22T02:47:55.591Z,80.80
2018-03-22T02:50:23.209Z,81.00
2018-03-22T02:52:50.497Z,80.20
2018-03-22T02:55:17.078Z,80.20
2018-03-22T02:57:43.664Z,80.20
2018-03-22T03:00:10.277Z,80.20
2018-03-22T03:02:37.844Z,80.20
2018-03-22T03:05:04.443Z,80.20
2018-03-22T03:07:30.987Z,80.20
2018-03-22T03:09:58.310Z,80.10
2018-03-22T03:12:24.864Z,80.10
2018-03-22T03:14:51.485Z,80.10
2018-03-22T03:17:18.038Z,80.10
2018-03-22T03:19:44.637Z,80.20
2018-03-22T03:22:11.257Z,80.80
2018-03-22T03:24:37.848Z,80.80
2018-03-22T03:27:04.427Z,80.60
2018-03-22T03:29:31.679Z,80.20
2018-03-22T03:31:58.987Z,80.10
2018-03-22T03:34:25.523Z,80.10
2018-03-22T03:36:52.111Z,80.50
2018-03-22T03:39:19.395Z,80.90
2018-03-22T03:41:45.974Z,80.80
2018-03-22T03:44:12.556Z,80.30
2018-03-22T03:46:39.135Z,80.00
2018-03-22T03:49:05.672Z,80.00
2018-03-22T03:51:32.242Z,80.00
2018-03-22T03:53:59.535Z,80.00
2018-03-22T03:56:26.115Z,80.00
2018-03-22T03:58:52.679Z,80.00
2018-03-22T04:01:19.952Z,80.00
2018-03-22T04:04:02.542Z,80.00
2018-03-22T04:06:29.827Z,80.00
2018-03-22T04:08:56.420Z,80.00
2018-03-22T04:11:22.995Z,80.00
2018-03-22T04:13:49.627Z,80.00
2018-03-22T04:16:16.187Z,80.00
2018-03-22T04:18:43.198Z,80.00
2018-03-22T04:21:17.810Z,80.10
2018-03-22T04:23:44.405Z,80.10
2018-03-22T04:26:12.989Z,80.10
2018-03-22T04:28:39.584Z,80.10
2018-03-22T04:31:27.631Z,79.90
2018-03-22T04:33:54.946Z,80.10
2018-03-22T04:36:21.503Z,80.00
2018-03-22T04:38:48.818Z,79.60
2018-03-22T04:41:15.371Z,79.60
2018-03-22T04:43:41.943Z,79.60
2018-03-22T04:46:09.557Z,80.30
2018-03-22T04:48:36.104Z,80.90
2018-03-22T04:51:10.550Z,80.90
2018-03-22T04:53:37.113Z,80.50
2018-03-22T04:56:17.687Z,79.90
2018-03-22T04:58:44.283Z,79.80
2018-03-22T05:01:17.904Z,79.80
2018-03-22T05:03:45.201Z,80.00
2018-03-22T05:06:11.767Z,80.00
2018-03-22T05:08:38.348Z,79.70
2018-03-22T05:11:06.607Z,79.90
2018-03-22T05:13:33.251Z,79.80
2018-03-22T05:15:59.810Z,80.10
2018-03-22T05:18:26.440Z,80.10
2018-03-22T05:20:52.971Z,79.60
2018-03-22T05:23:19.536Z,79.10
2018-03-22T05:25:46.102Z,78.60
2018-03-22T05:28:12.692Z,78.80
2018-03-22T05:30:39.255Z,78.70
2018-03-22T05:33:05.786Z,79.30
2018-03-22T05:35:32.451Z,79.60
2018-03-22T05:37:59.025Z,79.80
2018-03-22T05:40:26.388Z,79.30
2018-03-22T05:42:53.732Z,79.00
2018-03-22T05:45:21.077Z,78.70
2018-03-22T05:47:48.396Z,78.60
2018-03-22T05:50:14.968Z,78.50
2018-03-22T05:52:41.502Z,78.50
2018-03-22T05:55:08.951Z,78.20
2018-03-22T05:57:35.500Z,77.90
2018-03-22T06:00:02.911Z,77.50
2018-03-22T06:02:29.500Z,77.50
2018-03-22T06:04:56.085Z,77.20
2018-03-22T06:07:22.636Z,76.80
2018-03-22T06:09:49.271Z,76.40
2018-03-22T06:12:16.623Z,76.40
2018-03-22T06:14:43.215Z,76.50
2018-03-22T06:17:09.827Z,76.20
2018-03-22T06:19:37.195Z,75.60
2018-03-22T06:22:04.467Z,75.10
2018-03-22T06:24:31.583Z,75.10
2018-03-22T06:26:58.142Z,75.00
2018-03-22T06:29:25.571Z,74.50
2018-03-22T06:31:52.173Z,74.50
2018-03-22T06:34:18.792Z,74.50
2018-03-22T06:36:45.375Z,74.00
2018-03-22T06:39:11.947Z,73.40
2018-03-22T06:41:39.269Z,73.40
2018-03-22T06:44:05.916Z,73.30
2018-03-22T06:46:32.591Z,73.30
2018-03-22T06:48:59.207Z,72.90
2018-03-22T06:51:25.834Z,72.50
2018-03-22T06:53:52.431Z,72.00
2018-03-22T06:56:18.975Z,71.50
2018-03-22T06:58:45.603Z,70.20
2018-03-22T07:01:12.993Z,68.70
2018-03-22T07:03:39.579Z,68.60
2018-03-22T07:06:06.148Z,68.20
2018-03-22T07:08:32.724Z,66.90
2018-03-22T07:10:59.284Z,66.20
2018-03-22T07:13:25.875Z,65.60
2018-03-22T07:15:52.447Z,63.50
2018-03-22T07:18:19.760Z,62.80
2018-03-22T07:20:46.356Z,62.70
2018-03-22T07:23:13.646Z,61.40
2018-03-22T07:25:40.242Z,61.40
2018-03-22T07:28:07.552Z,60.30
2018-03-22T07:30:34.125Z,60.30
2018-03-22T07:33:00.772Z,60.00
2018-03-22T07:35:28.133Z,59.20
2018-03-22T07:37:54.727Z,59.20
2018-03-22T07:40:21.346Z,59.50
2018-03-22T07:42:54.659Z,60.00
2018-03-22T07:45:21.281Z,58.30
2018-03-22T07:47:47.887Z,57.50
2018-03-22T07:50:14.539Z,58.30
2018-03-22T07:52:41.167Z,58.00
2018-03-22T07:55:07.763Z,56.70
2018-03-22T07:57:34.311Z,56.50
2018-03-22T08:00:01.660Z,56.50
2018-03-22T08:02:29.019Z,56.50
2018-03-22T08:04:55.580Z,56.50
2018-03-22T08:07:22.213Z,56.20
2018-03-22T08:09:48.799Z,56.20
2018-03-22T08:12:15.415Z,55.80
2018-03-22T08:14:42.029Z,56.80
2018-03-22T08:17:08.623Z,56.50
2018-03-22T08:19:35.218Z,57.10
2018-03-22T08:22:01.803Z,57.80
2018-03-22T08:24:28.412Z,57.80
2018-03-22T08:26:54.968Z,56.90
2018-03-22T08:29:21.551Z,55.60
2018-03-22T08:31:48.131Z,55.10
2018-03-22T08:34:14.870Z,54.90
2018-03-22T08:36:42.213Z,55.40
2018-03-22T08:39:08.855Z,55.40
2018-03-22T08:41:35.415Z,55.20
2018-03-22T08:44:02.038Z,54.80
2018-03-22T08:46:28.639Z,54.80
2018-03-22T08:48:55.264Z,54.80
2018-03-22T08:51:21.861Z,54.70
2018-03-22T08:53:48.396Z,54.10
2018-03-22T08:56:14.992Z,53.90
2018-03-22T08:58:42.280Z,54.10
2018-03-22T09:01:08.853Z,54.10
2018-03-22T09:03:36.207Z,53.20
2018-03-22T09:06:02.812Z,53.10
2018-03-22T09:08:29.403Z,52.00
2018-03-22T09:10:55.994Z,52.20
2018-03-22T09:13:22.647Z,52.00
2018-03-22T09:15:49.232Z,51.70
2018-03-22T09:18:15.819Z,51.70
2018-03-22T09:20:42.420Z,51.70
2018-03-22T09:23:08.970Z,50.40
2018-03-22T09:25:35.568Z,49.70
2018-03-22T09:28:02.155Z,49.20
2018-03-22T09:30:28.757Z,48.90
2018-03-22T09:32:55.371Z,48.10
2018-03-22T09:35:22.719Z,44.30
2018-03-22T09:37:49.268Z,44.20
2018-03-22T09:40:15.863Z,42.30
2018-03-22T09:42:42.494Z,40.90
2018-03-22T09:45:09.079Z,40.80
2018-03-22T09:47:35.695Z,41.10
2018-03-22T09:50:02.349Z,40.70
2018-03-22T09:52:28.935Z,41.80
2018-03-22T09:54:56.242Z,42.20
2018-03-22T09:57:22.890Z,42.20
2018-03-22T09:59:50.246Z,42.70
2018-03-22T10:02:17.535Z,42.20
2018-03-22T10:04:44.137Z,42.10
2018-03-22T10:07:10.676Z,40.40
2018-03-22T10:09:37.997Z,39.80
2018-03-22T10:12:04.546Z,39.80
2018-03-22T10:14:31.139Z,40.50
2018-03-22T10:16:57.729Z,40.00
2018-03-22T10:19:24.275Z,39.80
2018-03-22T10:21:50.872Z,40.20
2018-03-22T10:24:17.439Z,37.50
2018-03-22T10:26:44.778Z,39.60
2018-03-22T10:29:11.336Z,39.60
2018-03-22T10:31:37.911Z,39.80
2018-03-22T10:34:04.498Z,41.00
2018-03-22T10:36:31.061Z,42.40
2018-03-22T10:38:57.740Z,40.60
2018-03-22T10:41:24.379Z,41.40
2018-03-22T10:43:50.963Z,41.30
2018-03-22T10:46:17.541Z,40.80
2018-03-22T10:48:44.078Z,40.00
2018-03-22T10:51:10.712Z,40.20
2018-03-22T10:53:37.978Z,40.10
2018-03-22T10:56:04.606Z,40.10
2018-03-22T10:58:31.147Z,38.60
2018-03-22T11:01:03.732Z,40.90
2018-03-22T11:03:30.306Z,39.80
2018-03-22T11:05:56.854Z,41.10
2018-03-22T11:08:23.444Z,40.30
2018-03-22T11:10:50.087Z,40.00
2018-03-22T11:13:16.707Z,40.80
2018-03-22T11:15:43.286Z,40.00
2018-03-22T11:18:09.896Z,39.90
2018-03-22T11:20:36.454Z,39.90
2018-03-22T11:23:03.007Z,41.40
2018-03-22T11:25:29.604Z,41.20
2018-03-22T11:27:56.208Z,42.10
2018-03-22T11:30:22.809Z,44.30
2018-03-22T11:32:49.388Z,43.50
2018-03-22T11:35:15.946Z,43.50
2018-03-22T11:37:43.268Z,44.00
2018-03-22T11:40:09.847Z,44.00
2018-03-22T11:42:36.416Z,44.50
2018-03-22T11:45:03.021Z,44.10
2018-03-22T11:47:29.563Z,44.70
2018-03-22T11:49:56.187Z,44.70
2018-03-22T11:52:22.728Z,45.60
2018-03-22T11:54:49.343Z,46.60
2018-03-22T11:57:16.696Z,47.70
2018-03-22T11:59:43.232Z,47.70
2018-03-22T12:02:09.826Z,47.00
2018-03-22T12:04:36.378Z,48.10
2018-03-22T12:07:02.948Z,46.80
2018-03-22T12:09:30.237Z,48.50
2018-03-22T12:11:56.846Z,48.50
2018-03-22T12:14:24.143Z,50.80
2018-03-22T12:16:50.704Z,50.80
2018-03-22T12:19:17.304Z,51.40
2018-03-22T12:21:43.908Z,52.20
2018-03-22T12:24:10.492Z,53.30
2018-03-22T12:26:37.076Z,53.70
2018-03-22T12:29:03.722Z,54.00
2018-03-22T12:31:31.340Z,54.40
2018-03-22T12:33:57.887Z,54.30
2018-03-22T12:36:24.473Z,54.80
2018-03-22T12:38:51.790Z,56.80
2018-03-22T12:41:18.399Z,56.80
2018-03-22T12:43:45.025Z,59.20
2018-03-22T12:46:12.315Z,66.00
2018-03-22T12:48:38.857Z,66.00
2018-03-22T12:51:05.453Z,70.70
2018-03-22T12:53:32.024Z,72.40
2018-03-22T12:55:58.608Z,74.00
2018-03-22T12:58:25.956Z,76.40
2018-03-22T13:00:53.304Z,78.60
2018-03-22T13:03:20.620Z,78.50
2018-03-22T13:08:43.649Z,79.30
2018-03-22T13:11:10.279Z,78.80
2018-03-22T13:13:37.574Z,78.70
2018-03-22T13:16:04.201Z,78.70
2018-03-22T13:18:30.762Z,79.10
2018-03-22T13:20:57.354Z,78.70
2018-03-22T13:23:23.947Z,80.60
2018-03-22T13:25:50.511Z,80.80
2018-03-22T13:28:17.075Z,81.30
2018-03-22T13:30:43.611Z,80.30
2018-03-22T13:33:10.931Z,80.40
2018-03-22T13:35:37.475Z,80.30
2018-03-22T13:38:04.044Z,79.60
2018-03-22T13:40:30.587Z,80.30
2018-03-22T13:42:57.116Z,79.60
2018-03-22T13:45:23.687Z,78.80
2018-03-22T13:47:50.252Z,78.80
2018-03-22T13:50:16.908Z,80.50
2018-03-22T13:52:44.199Z,79.00
2018-03-22T13:55:10.770Z,78.90
2018-03-22T13:57:37.407Z,78.90
2018-03-22T14:00:04.063Z,80.70
2018-03-22T14:02:30.622Z,79.10
2018-03-22T14:04:57.902Z,79.80
2018-03-22T14:07:24.484Z,79.80
2018-03-22T14:09:51.820Z,78.30
2018-03-22T14:12:18.442Z,78.20
2018-03-22T14:14:45.003Z,78.60
2018-03-22T14:17:11.581Z,78.60
2018-03-22T14:19:38.183Z,80.70
2018-03-22T14:22:05.554Z,81.40
2018-03-22T14:24:32.153Z,81.40
2018-03-22T14:26:59.714Z,82.50
2018-03-22T14:29:26.307Z,82.00
2018-03-22T14:31:52.847Z,82.50
2018-03-22T14:34:20.165Z,83.80
2018-03-22T14:36:46.791Z,83.80
2018-03-22T14:39:13.347Z,83.10
2018-03-22T14:41:39.947Z,83.70
2018-03-22T14:44:06.489Z,84.30
2018-03-22T14:46:33.076Z,85.40
2018-03-22T14:48:59.659Z,86.90
2018-03-22T14:51:26.231Z,87.60
2018-03-22T14:53:52.809Z,88.80
2018-03-22T14:56:20.125Z,88.10
2018-03-22T14:58:46.704Z,88.90
2018-03-22T15:01:14.008Z,89.40
2018-03-22T15:03:40.584Z,89.40
2018-03-22T15:06:07.123Z,90.00
2018-03-22T15:08:33.659Z,90.00
2018-03-22T15:11:00.958Z,90.10
2018-03-22T15:13:27.562Z,90.10
2018-03-22T15:15:54.259Z,90.10
2018-03-22T15:18:20.812Z,89.80
2018-03-22T15:20:47.390Z,89.90
2018-03-22T15:23:13.924Z,90.00
2018-03-22T15:25:40.511Z,89.90
2018-03-22T15:28:07.115Z,89.60
2018-03-22T15:30:33.685Z,89.30
2018-03-22T15:33:00.259Z,89.30
2018-03-22T15:35:27.536Z,86.00
2018-03-22T15:37:54.122Z,86.00
2018-03-22T15:40:21.496Z,86.50
2018-03-22T15:42:48.046Z,86.50
2018-03-22T15:45:15.506Z,87.50
2018-03-22T15:47:42.107Z,87.50
2018-03-22T15:50:08.783Z,87.70
2018-03-22T15:52:36.099Z,88.10
2018-03-22T15:55:02.753Z,88.10
2018-03-22T15:57:29.359Z,88.40
2018-03-22T15:59:55.899Z,89.20
2018-03-22T16:02:22.460Z,89.60
2018-03-22T16:04:49.030Z,90.10
2018-03-22T16:07:16.333Z,90.80
2018-03-22T16:09:43.037Z,90.80
2018-03-22T16:12:10.591Z,90.80
2018-03-22T16:14:37.148Z,90.90
2018-03-22T16:17:03.808Z,91.10
2018-03-22T16:19:30.406Z,91.10
2018-03-22T16:21:56.975Z,91.40
2018-03-22T16:24:23.512Z,91.30
2018-03-22T16:26:50.152Z,91.30
2018-03-22T16:29:16.764Z,91.40
2018-03-22T16:31:44.039Z,91.60
2018-03-22T16:34:10.623Z,91.60
2018-03-22T16:36:37.213Z,91.90
2018-03-22T16:39:03.898Z,91.70
2018-03-22T16:41:30.431Z,92.00
2018-03-22T16:43:57.016Z,92.20
2018-03-22T16:46:23.614Z,92.30
2018-03-22T16:48:51.006Z,92.40
2018-03-22T16:51:17.575Z,92.40
2018-03-22T16:53:44.566Z,92.30
2018-03-22T16:56:11.266Z,92.30
2018-03-22T16:58:38.310Z,92.10
2018-03-22T17:01:05.171Z,92.20
2018-03-22T17:03:32.588Z,92.40
2018-03-22T17:05:59.203Z,92.40
2018-03-22T17:08:25.812Z,92.40
2018-03-22T17:10:52.434Z,92.30
2018-03-22T17:13:18.997Z,92.40
2018-03-22T17:15:46.340Z,92.60
2018-03-22T17:18:12.994Z,92.60
2018-03-22T17:20:39.619Z,92.80
2018-03-22T17:23:06.184Z,93.00
2018-03-22T17:25:33.482Z,93.00
2018-03-22T17:28:00.043Z,93.00
2018-03-22T17:30:26.727Z,93.10
2018-03-22T17:32:53.254Z,93.10
2018-03-22T17:35:19.843Z,93.20
2018-03-22T17:37:46.379Z,93.30
2018-03-22T17:40:12.972Z,93.30
2018-03-22T17:42:39.531Z,93.50
2018-03-22T17:45:06.207Z,93.60
2018-03-22T17:47:32.748Z,93.70
2018-03-22T17:49:59.406Z,93.80
2018-03-22T17:52:35.675Z,93.80
2018-03-22T17:55:06.218Z,93.80
2018-03-22T17:57:32.778Z,93.90
2018-03-22T17:59:59.339Z,94.20
2018-03-22T18:02:33.834Z,94.20
2018-03-22T18:05:09.339Z,94.30
2018-03-22T18:07:50.892Z,94.50
2018-03-22T18:10:17.462Z,94.50
2018-03-22T18:15:41.372Z,94.70
2018-03-22T18:18:08.719Z,95.00
2018-03-22T18:20:35.992Z,95.00
2018-03-22T18:23:03.312Z,95.20
2018-03-22T18:25:33.758Z,95.20
2018-03-22T18:28:01.373Z,95.30
2018-03-22T18:30:28.979Z,95.30
2018-03-22T18:32:55.538Z,95.40
2018-03-22T18:35:22.207Z,95.50
2018-03-22T18:37:49.444Z,95.60
2018-03-22T18:40:16.011Z,95.60
2018-03-22T18:42:42.584Z,95.70
2018-03-22T18:45:09.124Z,95.60
2018-03-22T18:47:36.435Z,95.70
2018-03-22T18:50:03.137Z,95.70
2018-03-22T18:52:30.447Z,95.80
2018-03-22T18:54:57.043Z,95.80
2018-03-22T18:57:23.630Z,95.70
2018-03-22T18:59:50.174Z,95.80
2018-03-22T19:02:16.731Z,95.90
2018-03-22T19:04:44.075Z,95.90
2018-03-22T19:07:11.391Z,95.90
2018-03-22T19:09:37.917Z,95.90
2018-03-22T19:12:04.504Z,95.90
2018-03-22T19:14:31.784Z,96.00
2018-03-22T19:16:58.395Z,96.00
2018-03-22T19:19:25.678Z,96.10
2018-03-22T19:21:52.326Z,96.10
2018-03-22T19:24:18.911Z,96.20
2018-03-22T19:26:46.222Z,96.10
2018-03-22T19:29:12.814Z,96.10
2018-03-22T19:31:39.367Z,96.10
2018-03-22T19:34:06.705Z,96.10
2018-03-22T19:36:33.256Z,96.10
2018-03-22T19:39:00.595Z,96.30
2018-03-22T19:41:38.059Z,96.20
2018-03-22T19:44:04.650Z,96.20
2018-03-22T19:46:31.306Z,96.30
2018-03-22T19:48:58.648Z,96.40
2018-03-22T19:51:25.215Z,96.40
2018-03-22T19:53:51.786Z,96.40
2018-03-22T19:56:18.308Z,96.80
2018-03-22T19:58:44.891Z,96.40
2018-03-22T20:01:12.192Z,96.50
2018-03-22T20:03:38.759Z,96.50
2018-03-22T20:06:05.304Z,96.50
2018-03-22T20:08:31.925Z,96.60
2018-03-22T20:10:58.475Z,96.60
2018-03-22T20:13:25.124Z,96.60
2018-03-22T20:15:52.442Z,96.70
2018-03-22T20:18:19.015Z,96.80
2018-03-22T20:20:46.335Z,96.70
2018-03-22T20:23:12.907Z,96.70
2018-03-22T20:25:39.450Z,96.70
2018-03-22T20:28:06.775Z,97.20
2018-03-22T20:30:33.367Z,96.80
2018-03-22T20:33:00.723Z,96.90
2018-03-22T20:35:27.329Z,96.80
2018-03-22T20:37:53.892Z,96.80
2018-03-22T20:40:21.226Z,96.90
2018-03-22T20:42:48.527Z,96.90
2018-03-22T20:45:15.273Z,96.90
2018-03-22T20:47:41.841Z,96.90
2018-03-22T20:50:08.427Z,96.90
2018-03-22T20:52:34.990Z,96.90
2018-03-22T20:55:01.574Z,96.90
2018-03-22T20:57:28.121Z,96.90
2018-03-22T20:59:55.451Z,97.00
2018-03-22T21:02:22.042Z,97.00
2018-03-22T21:04:48.604Z,96.90
2018-03-22T21:07:15.163Z,96.90
2018-03-22T21:09:42.506Z,96.90
2018-03-22T21:12:09.064Z,96.90
2018-03-22T21:14:35.657Z,97.00
2018-03-22T21:17:02.265Z,97.00
2018-03-22T21:19:28.826Z,96.90
2018-03-22T21:21:56.198Z,97.10
2018-03-22T21:24:22.760Z,97.00
2018-03-22T21:26:49.347Z,97.00
2018-03-22T21:29:15.927Z,96.90
2018-03-22T21:31:42.471Z,96.90
2018-03-22T21:34:09.038Z,96.90
2018-03-22T21:36:36.318Z,97.10
2018-03-22T21:39:03.214Z,97.10
2018-03-22T21:41:29.835Z,97.00
2018-03-22T21:44:08.391Z,97.10
2018-03-22T21:46:35.664Z,97.20
2018-03-22T21:49:02.282Z,97.20
2018-03-22T21:51:29.647Z,97.10
2018-03-22T21:53:56.175Z,97.10
2018-03-22T21:56:22.774Z,97.10
2018-03-22T21:58:49.310Z,97.20
2018-03-22T22:01:15.871Z,97.20
2018-03-22T22:03:42.437Z,97.30
2018-03-22T22:06:08.970Z,97.30
2018-03-22T22:08:35.587Z,97.40
2018-03-22T22:11:02.178Z,97.40
2018-03-22T22:13:28.819Z,97.40
2018-03-22T22:15:55.368Z,97.40
2018-03-22T22:18:21.923Z,97.50
2018-03-22T22:20:48.503Z,97.50
2018-03-22T22:23:15.053Z,97.60
2018-03-22T22:25:41.639Z,97.60
2018-03-22T22:28:08.163Z,97.70
2018-03-22T22:30:34.746Z,97.80
2018-03-22T22:33:01.295Z,97.70
2018-03-22T22:35:27.840Z,97.90
2018-03-22T22:37:54.431Z,97.80
2018-03-22T22:40:21.734Z,97.90
2018-03-22T22:42:48.315Z,97.90
2018-03-22T22:45:14.861Z,97.80
2018-03-22T22:47:41.403Z,97.80
2018-03-22T22:50:08.692Z,97.90
2018-03-22T22:52:35.222Z,97.90
2018-03-22T22:55:01.800Z,97.90
2018-03-22T22:57:29.133Z,98.00
2018-03-22T22:59:55.720Z,98.00
2018-03-22T23:02:22.284Z,98.10
2018-03-22T23:04:48.902Z,98.10
2018-03-22T23:07:16.207Z,98.10
2018-03-22T23:12:39.358Z,98.20
2018-03-22T23:15:06.547Z,98.30
2018-03-22T23:17:32.977Z,98.30
2018-03-22T23:19:59.410Z,98.30
2018-03-22T23:22:25.840Z,98.30
2018-03-22T23:24:52.280Z,98.30
2018-03-22T23:27:18.737Z,98.30
2018-03-22T23:29:45.134Z,98.20
2018-03-22T23:32:11.572Z,98.30
2018-03-22T23:34:37.997Z,98.30
2018-03-22T23:37:04.464Z,98.30
2018-03-22T23:39:30.901Z,98.30
2018-03-22T23:41:57.433Z,98.30
2018-03-22T23:44:23.844Z,98.20
2018-03-22T23:46:50.312Z,98.30
2018-03-22T23:49:16.792Z,98.40
2018-03-22T23:51:43.956Z,98.40
2018-03-22T23:54:11.129Z,98.40
2018-03-22T23:56:37.608Z,98.40
2018-03-22T23:59:04.025Z,98.50
